Latest Coastal Weather Observations for Coolangatta (QLD)

IDN60701

Issued at 4:31 am EST Tuesday 28 April 2015 (issued every 10 minutes, with the page automatically refreshed every 10 minutes)

About coastal observations | Map of coastal stations | Coastal observations for NSW | Marine services | Other Formats
Station Details ID: 040717 Name: COOLANGATTA Lat: -28.17 Lon: 153.51 Height: 4.0 m
Data from the previous 72 hours. | See also: Recent months at Coolangatta (QLD)
Date/Time
EST
Temp

°C
Wind Pressure Rain
since 9am
mm
Weather Cloud Vis
km
Sea
Height
m
Swell
Dir
 
Speed
knots
Gust
knots
hPa Trend Height
m
Period
s
Dir
28/04:00am 14.8 S 5 8 1019.7 - 0.0 - - 10 - - - -
28/03:30am 14.5 S 5 8 1019.5 - 0.0 - - 10 - - - -
28/03:00am 15.2 SSE 4 5 1019.4 - 0.0 - Partly cloudy 10 - - - -
28/02:30am 17.0 SSW 5 8 1019.3 - 0.0 - Partly cloudy 10 - - - -
28/02:00am 17.1 SSW 5 8 1019.3 - 0.0 - - 10 - - - -
28/01:30am 16.3 SW 5 7 1019.7 - 0.0 - - 10 - - - -
28/01:00am 17.2 SW 4 6 1019.5 - 0.0 - - 10 - - - -
28/12:30am 17.4 SSW 6 9 1019.6 - 0.0 - - 10 - - - -
28/12:00am 17.9 SSW 8 11 1019.4 - 0.0 - - 10 - - - -
 
Date/Time
EST
Temp

°C
Wind Pressure Rain
since 9am
mm
Weather Cloud Vis
km
Sea
Height
m
Swell
Dir
 
Speed
knots
Gust
knots
hPa Trend Height
m
Period
s
Dir
27/11:30pm 17.7 SSW 7 10 1019.7 - 0.0 - - 10 - - - -
27/11:00pm 17.6 SSW 5 8 1019.8 - 0.0 - Partly cloudy 10 - - - -
27/10:30pm 16.5 SSW 4 6 1020.0 - 0.0 - Partly cloudy 10 - - - -
27/10:00pm 16.1 WSW 4 5 1020.0 - 0.0 - Partly cloudy 10 - - - -
27/09:30pm 16.4 SW 5 7 1020.0 - 0.0 - Partly cloudy 10 - - - -
27/09:00pm 16.2 WSW 5 6 1019.8 - 0.0 - Partly cloudy 10 - - - -
27/08:30pm 16.7 WSW 4 5 1019.6 - 0.0 - Cloudy 10 - - - -
27/08:00pm 16.3 WSW 6 7 1019.5 - 0.0 - - 10 - - - -
27/07:30pm 16.4 WSW 6 7 1019.1 - 0.0 - - 10 - - - -
27/07:00pm 17.2 WSW 4 6 1018.6 - 0.0 - - 10 - - - -
27/06:30pm 17.9 SSW 6 7 1018.0 - 0.0 - - 10 - - - -
27/06:00pm 18.4 SW 4 6 1017.8 - 0.0 - - 10 - - - -
27/05:30pm 18.7 S 5 7 1017.5 - 0.0 - - 10 - - - -
27/05:00pm 19.8 SSE 7 9 1017.1 - 0.0 - - 10 - - - -
27/04:30pm 20.7 SSE 10 15 1016.9 - 0.0 - - 10 - - - -
27/04:00pm 22.2 SSE 11 14 1016.5 - 0.0 - - 10 - - - -
27/03:30pm 22.5 SE 13 18 1016.3 - 0.0 - Partly cloudy 10 - - - -
27/03:00pm 23.2 SE 12 17 1015.9 - 0.0 - Mostly clear 10 - - - -
27/02:30pm 23.5 SE 12 18 1015.8 - 0.0 - - 10 - - - -
27/02:00pm 23.4 SE 10 15 1015.6 - 0.0 - Partly cloudy 10 - - - -
27/01:30pm 24.0 SSE 7 11 1015.7 - 0.0 - - 10 - - - -
27/01:00pm 24.4 S 7 11 1015.8 - 0.0 - - 10 - - - -
27/12:30pm 24.3 S 8 11 1016.3 - 0.0 - - 10 - - - -
27/12:00pm 24.0 SSW 8 13 1016.6 - 0.0 - - 10 - - - -
27/11:30am 23.4 S 9 14 1017.0 - 0.0 - - 10 - - - -
27/11:00am 23.1 SSW 8 10 1017.4 - 0.0 - - 10 - - - -
27/10:30am 22.8 S 8 14 1017.6 - 0.0 - Partly cloudy 10 - - - -
27/10:00am 22.1 SSW 9 13 1017.8 - 0.0 - Cloudy 10 - - - -
27/09:30am 20.9 SSW 8 13 1017.9 - 0.0 - Partly cloudy 10 - - - -
27/09:00am 21.0 SSW 9 13 1017.8 - 0.0 - - 10 - - - -
27/08:30am 20.3 SW 7 9 1017.6 - 0.0 - - 10 - - - -
27/08:00am 19.5 SSW 4 6 1017.3 - 0.0 - - 10 - - - -
27/07:30am 17.9 SW 4 6 1017.0 - 0.0 - - 10 - - - -
27/07:00am 16.4 CALM 0 0 1016.8 - 0.0 - - 10 - - - -
27/06:30am 15.0 S 4 6 1016.4 - 0.0 - - 10 - - - -
27/06:00am 15.6 SSW 4 7 1015.9 - 0.0 - - 10 - - - -
27/05:30am 15.7 SW 5 8 1015.5 - 0.0 - - 10 - - - -
27/05:00am 15.3 SW 4 6 1015.0 - 0.0 - - 10 - - - -
27/04:30am 13.6 W 3 6 1014.7 - 0.0 - - 10 - - - -
27/04:00am 14.8 WSW 6 8 1014.4 - 0.0 - - 10 - - - -
27/03:30am 16.1 SSW 8 12 1014.2 - 0.0 - - 10 - - - -
27/03:00am 13.5 SW 5 7 1014.3 - 0.0 - - 10 - - - -
27/02:30am 13.6 W 4 5 1014.4 - 0.0 - - 10 - - - -
27/02:00am 14.7 SW 6 11 1014.4 - 0.0 - - 10 - - - -
27/01:30am 12.0 SW 5 8 1014.4 - 0.0 - - 10 - - - -
27/01:00am 11.5 WSW 5 6 1014.6 - 0.0 - - 10 - - - -
27/12:30am 13.3 W 4 5 1014.7 - 0.0 - - 10 - - - -
27/12:00am 14.0 SW 7 8 1014.7 - 0.0 - - 10 - - - -
 
Date/Time
EST
Temp

°C
Wind Pressure Rain
since 9am
mm
Weather Cloud Vis
km
Sea
Height
m
Swell
Dir
 
Speed
knots
Gust
knots
hPa Trend Height
m
Period
s
Dir
26/11:30pm 12.8 WNW 4 6 1015.0 - 0.0 - - 10 - - - -
26/11:00pm 12.8 NNW 4 5 1015.3 - 0.0 - - 10 - - - -
26/10:30pm 13.1 WNW 5 7 1015.3 - 0.0 - - 10 - - - -
26/10:00pm 13.3 NW 4 7 1015.4 - 0.0 - - 10 - - - -
26/09:30pm 12.9 WSW 4 6 1015.4 - 0.0 - - 10 - - - -
26/09:00pm 13.7 WSW 8 10 1015.1 - 0.0 - - 10 - - - -
26/08:30pm 12.9 SSW 4 6 1014.9 - 0.0 - - 10 - - - -
26/08:00pm 12.5 WSW 2 4 1014.4 - 0.0 - - 10 - - - -
26/07:30pm 12.9 CALM 0 0 1014.0 - 0.0 - - 10 - - - -
26/07:00pm 14.2 W 4 5 1013.3 - 0.0 - - 10 - - - -
26/06:30pm 14.4 WNW 3 4 1013.0 - 0.0 - - 10 - - - -
26/06:00pm 16.4 WNW 7 10 1012.4 - 0.0 - - 10 - - - -
26/05:30pm 19.0 WSW 6 10 1011.9 - 0.0 - - 10 - - - -
26/05:00pm 20.4 SW 9 13 1011.4 - 0.0 - - 10 - - - -
26/04:30pm 21.6 SW 11 15 1010.8 - 0.0 - - 10 - - - -
26/04:00pm 22.0 SSW 9 15 1010.5 - 0.0 - - 10 - - - -
26/03:30pm 23.6 SW 5 9 1010.1 - 0.0 - - 10 - - - -
26/03:00pm 23.6 SW 10 15 1009.6 - 0.0 - - 10 - - - -
26/02:30pm 24.3 SW 9 16 1009.0 - 0.0 - - 10 - - - -
26/02:00pm 24.1 SW 10 16 1008.8 - 0.0 - - 10 - - - -
26/01:30pm 23.8 SW 10 14 1008.8 - 0.0 - - 10 - - - -
26/01:00pm 24.1 SSW 10 15 1008.7 - 0.0 - - 10 - - - -
26/12:30pm 23.8 SSW 9 15 1009.1 - 0.0 - - 10 - - - -
26/12:00pm 23.8 WSW 4 7 1008.9 - 0.0 - - 10 - - - -
26/11:30am 22.3 SE 6 9 1009.0 - 0.0 - - 10 - - - -
26/11:00am 22.3 S 7 11 1009.3 - 0.0 - - 10 - - - -
26/10:30am 22.1 WNW 10 15 1009.5 - 0.0 - - 10 - - - -
26/10:00am 21.6 W 11 16 1009.6 - 0.0 - - 10 - - - -
26/09:30am 21.2 NNW 4 7 1010.1 - 0.0 - - 10 - - - -
26/09:00am 20.8 ENE 3 6 1010.5 - 0.0 - - 10 - - - -
26/08:30am 20.1 WNW 1 4 1010.8 - 0.0 - - 10 - - - -
26/08:00am 18.6 SW 4 7 1010.7 - 0.0 - - 10 - - - -
26/07:30am 16.8 NNW 5 7 1010.4 - 0.0 - - 10 - - - -
26/07:00am 13.8 W 4 5 1010.3 - 0.0 - - 10 - - - -
26/06:30am 12.4 WSW 6 7 1009.9 - 0.0 - - 10 - - - -
26/06:00am 13.0 WSW 6 7 1009.5 - 0.0 - - 10 - - - -
26/05:30am 13.3 WSW 8 9 1009.2 - 0.0 - - 10 - - - -
26/05:00am 13.7 WSW 8 9 1008.9 - 0.0 - - 10 - - - -
26/04:30am 13.2 WSW 6 7 1008.7 - 0.0 - - 10 - - - -
26/04:00am 12.7 W 3 4 1008.3 - 0.0 - - 10 - - - -
26/03:30am 13.5 WSW 3 5 1008.2 - 0.0 - - 10 - - - -
26/03:00am 14.4 W 2 3 1008.0 - 0.0 - - 10 - - - -
26/02:30am 14.9 WSW 4 5 1007.8 - 0.0 - - 10 - - - -
26/02:00am 15.4 WSW 4 5 1007.8 - 0.0 - - 10 - - - -
26/01:30am 15.6 WSW 4 5 1008.0 - 0.0 - Partly cloudy 10 - - - -
26/01:00am 15.6 WSW 3 4 1008.0 - 0.0 - Partly cloudy 10 - - - -
26/12:30am 16.6 WSW 4 6 1008.2 - 0.0 - Partly cloudy 10 - - - -
26/12:00am 16.0 WNW 3 4 1008.4 - 0.0 - Partly cloudy 10 - - - -
 
Date/Time
EST
Temp

°C
Wind Pressure Rain
since 9am
mm
Weather Cloud Vis
km
Sea
Height
m
Swell
Dir
 
Speed
knots
Gust
knots
hPa Trend Height
m
Period
s
Dir
25/11:30pm 16.5 WSW 5 6 1008.7 - 0.0 - Partly cloudy 10 - - - -
25/11:00pm 16.8 WSW 4 5 1009.0 - 0.0 - Partly cloudy 10 - - - -
25/10:30pm 17.1 WSW 5 6 1009.3 - 0.0 - - 10 - - - -
25/10:00pm 17.1 WSW 4 5 1009.3 - 0.0 - - 10 - - - -
25/09:30pm 17.8 WSW 4 5 1009.4 - 0.0 - - 10 - - - -
25/09:00pm 19.7 WNW 6 8 1009.6 - 0.0 - Mostly clear 10 - - - -
25/08:30pm 17.8 WNW 5 7 1009.5 - 0.0 - - 10 - - - -
25/08:00pm 17.8 WSW 5 5 1009.3 - 0.0 - - 10 - - - -
25/07:30pm 17.8 W 5 6 1008.9 - 0.0 - - 10 - - - -
25/07:00pm 18.7 W 5 6 1008.6 - 0.0 - - 10 - - - -
25/06:30pm 19.8 W 6 6 1008.2 - 0.0 - - 10 - - - -
25/06:00pm 23.2 NNW 7 9 1007.9 - 0.0 - - 10 - - - -
25/05:30pm 23.5 N 8 11 1007.6 - 0.0 - - 10 - - - -
25/05:00pm 25.1 N 5 8 1007.5 - 0.0 - - 10 - - - -
25/04:30pm 26.2 NNE 8 9 1007.4 - 0.0 - - 10 - - - -
25/04:00pm 26.9 NNE 8 11 1007.3 - 0.0 - - 10 - - - -
25/03:30pm 27.0 NNE 9 11 1007.2 - 0.0 - - 10 - - - -
25/03:00pm 27.2 NNE 11 13 1007.2 - 0.0 - - 10 - - - -
25/02:30pm 27.6 NE 9 11 1007.3 - 0.0 - - 10 - - - -
25/02:00pm 26.7 NNE 10 12 1007.5 - 0.0 - - 10 - - - -
25/01:30pm 26.5 NE 8 12 1007.9 - 0.0 - - 10 - - - -
25/01:00pm 26.7 NE 8 10 1008.1 - 0.0 - - 10 - - - -
25/12:30pm 26.6 NNE 10 11 1008.3 - 0.0 - - 10 - - - -
25/12:00pm 27.0 NNE 9 10 1008.6 - 0.0 - Mostly clear 10 - - - -
25/11:30am 27.1 NNE 8 10 1009.1 - 0.0 - - 10 - - - -
25/11:00am 26.7 NNW 5 9 1009.5 - 0.0 - - 10 - - - -
25/10:30am 26.7 NNW 4 6 1009.9 - 0.0 - - 10 - - - -
25/10:00am 26.4 NW 5 7 1010.2 - 0.0 - - 10 - - - -
25/09:30am 26.3 NW 5 6 1010.5 - 0.0 - - 10 - - - -
25/09:00am 24.2 WNW 2 4 1010.6 - 0.0 - - 10 - - - -
25/08:30am 21.6 SW 3 4 1010.6 - 0.0 - - 10 - - - -
25/08:00am 18.8 SW 2 4 1010.5 - 0.0 - - 10 - - - -
25/07:30am 17.0 WSW 4 5 1010.4 - 0.0 - - 10 - - - -
25/07:00am 16.1 CALM 0 0 1009.9 - 0.0 - - 10 - - - -
25/06:30am 14.8 SW 3 5 1009.9 - 0.0 - - 10 - - - -
25/06:00am 14.6 SW 4 4 1009.6 - 0.0 - - 10 - - - -
25/05:30am 14.6 SW 2 4 1009.4 - 0.0 - - 10 - - - -
25/05:00am 14.8 CALM 0 3 1009.3 - 0.0 - - 10 - - - -

Other Formats:

Comma delimited format used in spreadsheet applications
http://www.bom.gov.au/fwo/IDN60701/IDN60701.94592.axf

JavaScript Object Notation format (JSON) in row-major order
http://www.bom.gov.au/fwo/IDN60701/IDN60701.94592.json